sensor_id;sensor_type;location;lat;lon;timestamp;pressure;altitude;pressure_sealevel;temperature;humidity
28008;BME280;15333;50.010;20.020;2022-09-28T00:01:24;97175.38;;;9.81;100.00
28008;BME280;15333;50.010;20.020;2022-09-28T00:04:25;97188.06;;;9.79;100.00
28008;BME280;15333;50.010;20.020;2022-09-28T00:07:27;97184.84;;;9.76;100.00
28008;BME280;15333;50.010;20.020;2022-09-28T00:10:28;97186.97;;;9.72;100.00
28008;BME280;15333;50.010;20.020;2022-09-28T00:13:29;97178.56;;;9.67;100.00
28008;BME280;15333;50.010;20.020;2022-09-28T00:16:33;97177.19;;;9.63;100.00
28008;BME280;15333;50.010;20.020;2022-09-28T00:19:35;97177.22;;;9.54;100.00
28008;BME280;15333;50.010;20.020;2022-09-28T00:22:36;97176.28;;;9.45;100.00
28008;BME280;15333;50.010;20.020;2022-09-28T00:25:37;97177.19;;;9.36;100.00
28008;BME280;15333;50.010;20.020;2022-09-28T00:28:37;97181.59;;;9.27;100.00
28008;BME280;15333;50.010;20.020;2022-09-28T00:31:38;97183.88;;;9.22;100.00
28008;BME280;15333;50.010;20.020;2022-09-28T00:34:42;97180.50;;;9.20;100.00
28008;BME280;15333;50.010;20.020;2022-09-28T00:37:47;97174.91;;;9.14;100.00
28008;BME280;15333;50.010;20.020;2022-09-28T00:40:52;97178.03;;;9.09;100.00
28008;BME280;15333;50.010;20.020;2022-09-28T00:44:36;97185.19;;;9.09;100.00
28008;BME280;15333;50.010;20.020;2022-09-28T00:50:50;97174.91;;;9.14;100.00
28008;BME280;15333;50.010;20.020;2022-09-28T00:53:52;97180.50;;;9.20;100.00
28008;BME280;15333;50.010;20.020;2022-09-28T00:56:56;97181.63;;;9.18;100.00
28008;BME280;15333;50.010;20.020;2022-09-28T00:59:59;97179.38;;;9.23;100.00
28008;BME280;15333;50.010;20.020;2022-09-28T01:03:02;97172.63;;;9.19;100.00
28008;BME280;15333;50.010;20.020;2022-09-28T01:06:05;97166.59;;;9.17;100.00
28008;BME280;15333;50.010;20.020;2022-09-28T01:09:12;97169.56;;;9.14;100.00
28008;BME280;15333;50.010;20.020;2022-09-28T01:12:13;97166.78;;;9.06;100.00
28008;BME280;15333;50.010;20.020;2022-09-28T01:15:14;97166.97;;;8.94;100.00
28008;BME280;15333;50.010;20.020;2022-09-28T01:18:24;97174.53;;;8.99;100.00
28008;BME280;15333;50.010;20.020;2022-09-28T01:21:28;97169.44;;;9.06;100.00
28008;BME280;15333;50.010;20.020;2022-09-28T01:27:46;97172.41;;;9.02;100.00
28008;BME280;15333;50.010;20.020;2022-09-28T01:30:59;97175.06;;;9.02;100.00
28008;BME280;15333;50.010;20.020;2022-09-28T01:34:09;97172.00;;;8.97;100.00
28008;BME280;15333;50.010;20.020;2022-09-28T01:37:15;97174.97;;;8.94;100.00
28008;BME280;15333;50.010;20.020;2022-09-28T01:40:21;97173.81;;;8.97;100.00
28008;BME280;15333;50.010;20.020;2022-09-28T01:43:27;97175.06;;;9.02;100.00
28008;BME280;15333;50.010;20.020;2022-09-28T01:46:37;97177.00;;;9.10;100.00
28008;BME280;15333;50.010;20.020;2022-09-28T01:49:43;97180.53;;;9.11;100.00
28008;BME280;15333;50.010;20.020;2022-09-28T01:52:54;97185.13;;;9.18;100.00
28008;BME280;15333;50.010;20.020;2022-09-28T01:56:05;97186.94;;;9.18;100.00
28008;BME280;15333;50.010;20.020;2022-09-28T01:59:12;97187.38;;;9.23;100.00
28008;BME280;15333;50.010;20.020;2022-09-28T02:02:17;97182.44;;;9.28;100.00
28008;BME280;15333;50.010;20.020;2022-09-28T02:05:29;97189.44;;;9.29;100.00
28008;BME280;15333;50.010;20.020;2022-09-28T02:08:35;97190.81;;;9.33;100.00
28008;BME280;15333;50.010;20.020;2022-09-28T02:11:44;97196.16;;;9.33;100.00
28008;BME280;15333;50.010;20.020;2022-09-28T02:14:46;97194.19;;;9.35;100.00
28008;BME280;15333;50.010;20.020;2022-09-28T02:17:49;97202.91;;;9.37;100.00
28008;BME280;15333;50.010;20.020;2022-09-28T02:21:26;97192.47;;;9.43;100.00
28008;BME280;15333;50.010;20.020;2022-09-28T02:24:41;97194.59;;;9.40;100.00
28008;BME280;15333;50.010;20.020;2022-09-28T02:28:05;97197.56;;;9.37;100.00
28008;BME280;15333;50.010;20.020;2022-09-28T02:31:07;97200.25;;;9.37;100.00
28008;BME280;15333;50.010;20.020;2022-09-28T02:34:08;97204.88;;;9.35;100.00
28008;BME280;15333;50.010;20.020;2022-09-28T02:37:09;97193.63;;;9.31;100.00
28008;BME280;15333;50.010;20.020;2022-09-28T02:40:23;97201.97;;;9.28;100.00
28008;BME280;15333;50.010;20.020;2022-09-28T02:43:47;97204.97;;;9.16;100.00
28008;BME280;15333;50.010;20.020;2022-09-28T02:50:24;97215.56;;;8.88;100.00
28008;BME280;15333;50.010;20.020;2022-09-28T02:57:10;97214.34;;;8.73;100.00
28008;BME280;15333;50.010;20.020;2022-09-28T03:00:22;97215.47;;;8.61;100.00
28008;BME280;15333;50.010;20.020;2022-09-28T03:03:41;97209.84;;;8.54;100.00
28008;BME280;15333;50.010;20.020;2022-09-28T03:07:11;97212.69;;;8.43;100.00
28008;BME280;15333;50.010;20.020;2022-09-28T03:13:24;97209.84;;;8.25;100.00
28008;BME280;15333;50.010;20.020;2022-09-28T03:16:26;97204.38;;;8.17;100.00
28008;BME280;15333;50.010;20.020;2022-09-28T03:19:31;97204.78;;;8.13;100.00
28008;BME280;15333;50.010;20.020;2022-09-28T03:22:34;97210.41;;;8.00;100.00
28008;BME280;15333;50.010;20.020;2022-09-28T03:25:34;97209.28;;;7.93;100.00
28008;BME280;15333;50.010;20.020;2022-09-28T03:28:35;97215.16;;;7.87;100.00
28008;BME280;15333;50.010;20.020;2022-09-28T03:31:36;97210.66;;;7.78;100.00
28008;BME280;15333;50.010;20.020;2022-09-28T03:34:37;97208.13;;;7.67;100.00
28008;BME280;15333;50.010;20.020;2022-09-28T03:37:38;97205.28;;;7.59;100.00
28008;BME280;15333;50.010;20.020;2022-09-28T03:40:40;97214.06;;;7.50;100.00
28008;BME280;15333;50.010;20.020;2022-09-28T03:43:40;97207.88;;;7.39;100.00
28008;BME280;15333;50.010;20.020;2022-09-28T03:46:42;97207.88;;;7.39;100.00
28008;BME280;15333;50.010;20.020;2022-09-28T03:49:43;97218.81;;;7.36;100.00
28008;BME280;15333;50.010;20.020;2022-09-28T03:52:46;97220.50;;;7.37;100.00
28008;BME280;15333;50.010;20.020;2022-09-28T03:55:47;97216.28;;;7.35;100.00
28008;BME280;15333;50.010;20.020;2022-09-28T03:58:48;97222.88;;;7.40;100.00
28008;BME280;15333;50.010;20.020;2022-09-28T04:01:49;97216.69;;;7.40;100.00
28008;BME280;15333;50.010;20.020;2022-09-28T04:04:50;97220.66;;;7.45;100.00
28008;BME280;15333;50.010;20.020;2022-09-28T04:07:53;97222.19;;;7.38;100.00
28008;BME280;15333;50.010;20.020;2022-09-28T04:10:57;97216.94;;;7.27;100.00
28008;BME280;15333;50.010;20.020;2022-09-28T04:13:58;97218.44;;;7.20;100.00
28008;BME280;15333;50.010;20.020;2022-09-28T04:16:59;97224.19;;;7.16;100.00
28008;BME280;15333;50.010;20.020;2022-09-28T04:20:04;97222.97;;;6.99;100.00
28008;BME280;15333;50.010;20.020;2022-09-28T04:23:30;97221.56;;;6.95;100.00
28008;BME280;15333;50.010;20.020;2022-09-28T04:26:31;97227.41;;;6.89;100.00
28008;BME280;15333;50.010;20.020;2022-09-28T04:29:32;97225.13;;;6.84;100.00
28008;BME280;15333;50.010;20.020;2022-09-28T04:32:33;97223.63;;;6.91;100.00
28008;BME280;15333;50.010;20.020;2022-09-28T04:35:35;97220.75;;;7.04;100.00
28008;BME280;15333;50.010;20.020;2022-09-28T04:38:37;97232.50;;;7.01;100.00
28008;BME280;15333;50.010;20.020;2022-09-28T04:41:39;97228.22;;;6.89;100.00
28008;BME280;15333;50.010;20.020;2022-09-28T04:44:39;97229.34;;;6.87;100.00
28008;BME280;15333;50.010;20.020;2022-09-28T04:47:43;97234.06;;;6.83;100.00
28008;BME280;15333;50.010;20.020;2022-09-28T04:50:57;97239.13;;;6.86;100.00
28008;BME280;15333;50.010;20.020;2022-09-28T04:53:59;97229.97;;;7.00;100.00
28008;BME280;15333;50.010;20.020;2022-09-28T04:57:00;97236.50;;;7.17;100.00
28008;BME280;15333;50.010;20.020;2022-09-28T05:00:04;97230.06;;;7.19;100.00
28008;BME280;15333;50.010;20.020;2022-09-28T05:03:08;97241.53;;;7.20;100.00
28008;BME280;15333;50.010;20.020;2022-09-28T05:06:32;97245.78;;;7.22;100.00
28008;BME280;15333;50.010;20.020;2022-09-28T05:09:36;97246.50;;;7.24;100.00
28008;BME280;15333;50.010;20.020;2022-09-28T05:12:37;97251.00;;;7.33;100.00
28008;BME280;15333;50.010;20.020;2022-09-28T05:15:39;97252.13;;;7.40;100.00
28008;BME280;15333;50.010;20.020;2022-09-28T05:18:42;97252.06;;;7.52;100.00
28008;BME280;15333;50.010;20.020;2022-09-28T05:21:43;97252.13;;;7.71;100.00
28008;BME280;15333;50.010;20.020;2022-09-28T05:24:45;97249.78;;;7.87;100.00
28008;BME280;15333;50.010;20.020;2022-09-28T05:27:47;97244.31;;;7.98;100.00
28008;BME280;15333;50.010;20.020;2022-09-28T05:31:07;97237.31;;;7.97;100.00
28008;BME280;15333;50.010;20.020;2022-09-28T05:34:27;97246.81;;;7.90;100.00
28008;BME280;15333;50.010;20.020;2022-09-28T05:37:29;97245.13;;;7.89;100.00
28008;BME280;15333;50.010;20.020;2022-09-28T05:40:31;97239.13;;;7.97;100.00
28008;BME280;15333;50.010;20.020;2022-09-28T05:43:32;97247.69;;;8.00;100.00
28008;BME280;15333;50.010;20.020;2022-09-28T05:46:33;97243.75;;;8.04;100.00
28008;BME280;15333;50.010;20.020;2022-09-28T05:49:35;97245.47;;;8.15;100.00
28008;BME280;15333;50.010;20.020;2022-09-28T05:52:39;97248.56;;;8.30;100.00
28008;BME280;15333;50.010;20.020;2022-09-28T05:55:41;97254.22;;;8.55;100.00
28008;BME280;15333;50.010;20.020;2022-09-28T05:58:41;97244.91;;;8.88;97.95
28008;BME280;15333;50.010;20.020;2022-09-28T06:01:44;97246.25;;;9.12;96.85
28008;BME280;15333;50.010;20.020;2022-09-28T06:04:45;97246.50;;;9.28;95.21
28008;BME280;15333;50.010;20.020;2022-09-28T06:07:49;97246.72;;;9.44;92.93
28008;BME280;15333;50.010;20.020;2022-09-28T06:10:50;97251.16;;;9.53;93.00
28008;BME280;15333;50.010;20.020;2022-09-28T06:13:54;97251.75;;;9.47;92.14
28008;BME280;15333;50.010;20.020;2022-09-28T06:16:55;97249.34;;;9.54;90.29
28008;BME280;15333;50.010;20.020;2022-09-28T06:19:56;97249.69;;;9.68;90.80
28008;BME280;15333;50.010;20.020;2022-09-28T06:23:17;97237.91;;;9.89;89.27
28008;BME280;15333;50.010;20.020;2022-09-28T06:26:18;97236.03;;;9.99;87.70
28008;BME280;15333;50.010;20.020;2022-09-28T06:29:19;97243.94;;;9.73;87.66
28008;BME280;15333;50.010;20.020;2022-09-28T06:32:21;97240.16;;;9.66;87.96
28008;BME280;15333;50.010;20.020;2022-09-28T06:35:26;97243.47;;;9.77;87.83
28008;BME280;15333;50.010;20.020;2022-09-28T06:38:27;97248.09;;;10.03;86.17
28008;BME280;15333;50.010;20.020;2022-09-28T06:41:28;97239.53;;;10.44;84.42
28008;BME280;15333;50.010;20.020;2022-09-28T06:44:34;97237.63;;;10.37;82.89
28008;BME280;15333;50.010;20.020;2022-09-28T06:47:59;97232.94;;;10.39;82.83
28008;BME280;15333;50.010;20.020;2022-09-28T06:51:12;97225.69;;;10.31;83.74
28008;BME280;15333;50.010;20.020;2022-09-28T06:54:27;97217.28;;;10.26;82.27
28008;BME280;15333;50.010;20.020;2022-09-28T06:58:01;97229.69;;;10.27;83.11
28008;BME280;15333;50.010;20.020;2022-09-28T07:01:03;97217.28;;;10.26;81.89
28008;BME280;15333;50.010;20.020;2022-09-28T07:04:15;97232.50;;;10.26;81.38
28008;BME280;15333;50.010;20.020;2022-09-28T07:07:35;97232.72;;;10.32;81.14
28008;BME280;15333;50.010;20.020;2022-09-28T07:10:47;97247.94;;;10.32;81.73
28008;BME280;15333;50.010;20.020;2022-09-28T07:14:24;97248.16;;;10.38;81.40
28008;BME280;15333;50.010;20.020;2022-09-28T07:17:25;97249.72;;;10.58;81.39
28008;BME280;15333;50.010;20.020;2022-09-28T07:20:28;97255.50;;;10.72;79.45
28008;BME280;15333;50.010;20.020;2022-09-28T07:23:29;97252.28;;;10.86;78.10
28008;BME280;15333;50.010;20.020;2022-09-28T07:26:49;97244.72;;;11.07;77.51
28008;BME280;15333;50.010;20.020;2022-09-28T07:30:14;97240.59;;;11.13;76.54
28008;BME280;15333;50.010;20.020;2022-09-28T07:33:37;97240.09;;;11.17;75.75
28008;BME280;15333;50.010;20.020;2022-09-28T07:36:57;97248.06;;;11.09;74.46
28008;BME280;15333;50.010;20.020;2022-09-28T07:39:59;97252.84;;;11.23;72.67
28008;BME280;15333;50.010;20.020;2022-09-28T07:43:20;97251.19;;;11.22;72.86
28008;BME280;15333;50.010;20.020;2022-09-28T07:46:22;97247.25;;;11.34;72.11
28008;BME280;15333;50.010;20.020;2022-09-28T07:49:34;97249.00;;;11.52;70.65
28008;BME280;15333;50.010;20.020;2022-09-28T07:52:49;97252.06;;;11.57;69.65
28008;BME280;15333;50.010;20.020;2022-09-28T07:56:04;97257.03;;;11.52;69.95
28008;BME280;15333;50.010;20.020;2022-09-28T07:59:17;97251.38;;;11.55;69.47
28008;BME280;15333;50.010;20.020;2022-09-28T08:02:36;97249.00;;;11.77;68.08
28008;BME280;15333;50.010;20.020;2022-09-28T08:05:38;97242.81;;;11.77;66.80
28008;BME280;15333;50.010;20.020;2022-09-28T08:08:40;97244.91;;;11.99;66.27
28008;BME280;15333;50.010;20.020;2022-09-28T08:11:45;97245.22;;;11.96;66.04
28008;BME280;15333;50.010;20.020;2022-09-28T08:14:57;97249.91;;;11.94;65.77
28008;BME280;15333;50.010;20.020;2022-09-28T08:18:23;97248.91;;;11.95;64.71
28008;BME280;15333;50.010;20.020;2022-09-28T08:21:24;97244.63;;;12.27;64.69
28008;BME280;15333;50.010;20.020;2022-09-28T08:24:45;97242.69;;;12.77;63.05
28008;BME280;15333;50.010;20.020;2022-09-28T08:27:47;97243.34;;;12.95;60.90
28008;BME280;15333;50.010;20.020;2022-09-28T08:30:49;97250.06;;;12.75;60.88
28008;BME280;15333;50.010;20.020;2022-09-28T08:34:02;97235.28;;;12.95;61.40
28008;BME280;15333;50.010;20.020;2022-09-28T08:37:36;97243.69;;;12.68;61.29
28008;BME280;15333;50.010;20.020;2022-09-28T08:44:56;97236.63;;;12.67;59.97
28008;BME280;15333;50.010;20.020;2022-09-28T08:48:27;97241.50;;;12.96;60.10
28008;BME280;15333;50.010;20.020;2022-09-28T08:52:08;97237.66;;;12.90;59.26
28008;BME280;15333;50.010;20.020;2022-09-28T08:55:31;97236.97;;;12.97;59.44
28008;BME280;15333;50.010;20.020;2022-09-28T08:58:40;97237.13;;;13.03;58.19
28008;BME280;15333;50.010;20.020;2022-09-28T09:02:00;97234.63;;;13.02;57.02
28008;BME280;15333;50.010;20.020;2022-09-28T09:05:05;97241.19;;;13.15;58.29
28008;BME280;15333;50.010;20.020;2022-09-28T09:08:53;97241.03;;;12.92;56.05
28008;BME280;15333;50.010;20.020;2022-09-28T09:12:17;97237.00;;;13.13;56.60
28008;BME280;15333;50.010;20.020;2022-09-28T09:19:21;97229.25;;;13.18;57.24
28008;BME280;15333;50.010;20.020;2022-09-28T09:22:58;97235.16;;;13.21;56.26
28008;BME280;15333;50.010;20.020;2022-09-28T09:26:19;97232.41;;;13.29;55.70
28008;BME280;15333;50.010;20.020;2022-09-28T09:33:30;97227.19;;;13.36;54.78
28008;BME280;15333;50.010;20.020;2022-09-28T09:47:37;97245.31;;;13.50;55.54
28008;BME280;15333;50.010;20.020;2022-09-28T09:51:20;97242.59;;;13.58;55.99
28008;BME280;15333;50.010;20.020;2022-09-28T09:54:41;97247.28;;;13.64;55.14
28008;BME280;15333;50.010;20.020;2022-09-28T09:57:50;97243.19;;;13.85;56.58
28008;BME280;15333;50.010;20.020;2022-09-28T10:01:15;97236.44;;;13.89;55.97
28008;BME280;15333;50.010;20.020;2022-09-28T10:04:40;97237.19;;;13.75;56.09
28008;BME280;15333;50.010;20.020;2022-09-28T10:11:16;97214.53;;;14.00;57.04
28008;BME280;15333;50.010;20.020;2022-09-28T10:14:24;97218.66;;;13.80;57.03
28008;BME280;15333;50.010;20.020;2022-09-28T10:17:36;97221.03;;;13.75;56.68
28008;BME280;15333;50.010;20.020;2022-09-28T10:21:17;97210.41;;;13.89;56.03
28008;BME280;15333;50.010;20.020;2022-09-28T10:24:41;97206.84;;;13.97;56.36
28008;BME280;15333;50.010;20.020;2022-09-28T10:27:46;97204.78;;;14.30;56.27
28008;BME280;15333;50.010;20.020;2022-09-28T10:30:49;97197.03;;;14.58;55.97
28008;BME280;15333;50.010;20.020;2022-09-28T10:33:52;97200.28;;;14.76;55.01
28008;BME280;15333;50.010;20.020;2022-09-28T10:37:05;97207.78;;;15.03;54.51
28008;BME280;15333;50.010;20.020;2022-09-28T10:43:54;97202.75;;;15.00;52.61
28008;BME280;15333;50.010;20.020;2022-09-28T10:47:14;97199.94;;;15.46;53.02
28008;BME280;15333;50.010;20.020;2022-09-28T10:53:23;97188.31;;;15.89;51.89
28008;BME280;15333;50.010;20.020;2022-09-28T10:56:52;97195.16;;;15.56;52.69
28008;BME280;15333;50.010;20.020;2022-09-28T11:00:38;97185.13;;;15.42;53.42
28008;BME280;15333;50.010;20.020;2022-09-28T11:04:00;97182.56;;;15.34;54.71
28008;BME280;15333;50.010;20.020;2022-09-28T11:07:03;97183.75;;;15.31;54.46
28008;BME280;15333;50.010;20.020;2022-09-28T11:10:05;97183.03;;;15.66;53.82
28008;BME280;15333;50.010;20.020;2022-09-28T11:13:08;97171.78;;;15.34;52.68
28008;BME280;15333;50.010;20.020;2022-09-28T11:16:19;97172.31;;;15.44;53.74
28008;BME280;15333;50.010;20.020;2022-09-28T11:25:29;97155.31;;;15.73;54.20
28008;BME280;15333;50.010;20.020;2022-09-28T11:28:33;97154.34;;;15.95;54.34
28008;BME280;15333;50.010;20.020;2022-09-28T11:31:40;97149.84;;;15.66;53.30
28008;BME280;15333;50.010;20.020;2022-09-28T11:34:50;97155.06;;;15.53;53.67
28008;BME280;15333;50.010;20.020;2022-09-28T11:41:53;97143.22;;;15.39;56.67
28008;BME280;15333;50.010;20.020;2022-09-28T11:48:46;97138.28;;;15.28;56.21
28008;BME280;15333;50.010;20.020;2022-09-28T11:51:51;97130.59;;;15.40;56.83
28008;BME280;15333;50.010;20.020;2022-09-28T11:55:01;97123.69;;;15.22;56.43
28008;BME280;15333;50.010;20.020;2022-09-28T11:58:26;97117.19;;;15.32;55.45
28008;BME280;15333;50.010;20.020;2022-09-28T12:01:37;97096.31;;;15.34;54.73
28008;BME280;15333;50.010;20.020;2022-09-28T12:05:27;97109.66;;;15.42;54.22
28008;BME280;15333;50.010;20.020;2022-09-28T12:08:34;97102.31;;;15.65;53.81
28008;BME280;15333;50.010;20.020;2022-09-28T12:11:59;97105.16;;;15.78;54.61
28008;BME280;15333;50.010;20.020;2022-09-28T12:15:18;97106.75;;;15.73;53.19
28008;BME280;15333;50.010;20.020;2022-09-28T12:21:47;97104.81;;;15.81;54.22
28008;BME280;15333;50.010;20.020;2022-09-28T12:24:53;97091.81;;;15.70;52.49
28008;BME280;15333;50.010;20.020;2022-09-28T12:28:01;97086.41;;;15.70;53.24
28008;BME280;15333;50.010;20.020;2022-09-28T12:31:31;97092.88;;;15.90;53.42
28008;BME280;15333;50.010;20.020;2022-09-28T12:34:33;97101.00;;;16.12;53.90
28008;BME280;15333;50.010;20.020;2022-09-28T12:38:12;97086.84;;;16.10;54.26
28008;BME280;15333;50.010;20.020;2022-09-28T12:54:41;97065.38;;;16.23;52.17
28008;BME280;15333;50.010;20.020;2022-09-28T13:01:37;97062.53;;;16.31;52.92
28008;BME280;15333;50.010;20.020;2022-09-28T13:15:06;97067.00;;;16.17;51.80
28008;BME280;15333;50.010;20.020;2022-09-28T13:18:21;97080.66;;;15.94;52.43
28008;BME280;15333;50.010;20.020;2022-09-28T13:21:39;97074.25;;;15.95;53.60
28008;BME280;15333;50.010;20.020;2022-09-28T13:24:44;97070.28;;;15.91;53.41
28008;BME280;15333;50.010;20.020;2022-09-28T13:28:00;97072.31;;;16.11;52.85
28008;BME280;15333;50.010;20.020;2022-09-28T13:31:03;97071.03;;;16.06;53.34
28008;BME280;15333;50.010;20.020;2022-09-28T13:34:05;97069.88;;;16.16;53.60
28008;BME280;15333;50.010;20.020;2022-09-28T13:37:28;97063.19;;;16.12;55.29
28008;BME280;15333;50.010;20.020;2022-09-28T13:44:13;97055.03;;;16.26;54.55
28008;BME280;15333;50.010;20.020;2022-09-28T13:47:34;97047.88;;;16.40;55.64
28008;BME280;15333;50.010;20.020;2022-09-28T13:54:15;97036.94;;;17.04;51.52
28008;BME280;15333;50.010;20.020;2022-09-28T13:57:27;97052.72;;;16.72;51.67
28008;BME280;15333;50.010;20.020;2022-09-28T14:00:36;97051.69;;;16.73;53.69
28008;BME280;15333;50.010;20.020;2022-09-28T14:04:16;97055.56;;;16.64;54.59
28008;BME280;15333;50.010;20.020;2022-09-28T14:10:56;97070.94;;;16.42;55.21
28008;BME280;15333;50.010;20.020;2022-09-28T14:20:22;97078.06;;;16.50;56.50
28008;BME280;15333;50.010;20.020;2022-09-28T14:27:11;97078.63;;;16.39;55.61
28008;BME280;15333;50.010;20.020;2022-09-28T14:30:24;97077.47;;;16.27;58.49
28008;BME280;15333;50.010;20.020;2022-09-28T14:33:27;97061.00;;;16.00;57.99
28008;BME280;15333;50.010;20.020;2022-09-28T14:36:38;97055.72;;;15.92;57.88
28008;BME280;15333;50.010;20.020;2022-09-28T14:40:08;97055.44;;;15.66;61.46
28008;BME280;15333;50.010;20.020;2022-09-28T14:46:44;97050.19;;;15.28;62.39
28008;BME280;15333;50.010;20.020;2022-09-28T14:49:45;97046.97;;;15.18;64.61
28008;BME280;15333;50.010;20.020;2022-09-28T14:52:54;97047.41;;;15.07;66.73
28008;BME280;15333;50.010;20.020;2022-09-28T14:55:58;97043.34;;;15.11;66.05
28008;BME280;15333;50.010;20.020;2022-09-28T14:58:59;97038.69;;;14.91;67.66
28008;BME280;15333;50.010;20.020;2022-09-28T15:05:15;97043.47;;;14.51;70.21
28008;BME280;15333;50.010;20.020;2022-09-28T15:08:18;97034.47;;;14.44;70.85
28008;BME280;15333;50.010;20.020;2022-09-28T15:11:23;97034.34;;;14.37;72.34
28008;BME280;15333;50.010;20.020;2022-09-28T15:14:26;97049.53;;;14.30;71.70
28008;BME280;15333;50.010;20.020;2022-09-28T15:17:33;97047.28;;;14.19;74.39
28008;BME280;15333;50.010;20.020;2022-09-28T15:20:38;97051.72;;;14.12;75.23
28008;BME280;15333;50.010;20.020;2022-09-28T15:23:42;97043.31;;;14.30;74.30
28008;BME280;15333;50.010;20.020;2022-09-28T15:26:46;97049.25;;;14.25;75.29
28008;BME280;15333;50.010;20.020;2022-09-28T15:29:58;97048.59;;;14.23;73.23
28008;BME280;15333;50.010;20.020;2022-09-28T15:33:01;97045.81;;;14.31;69.67
28008;BME280;15333;50.010;20.020;2022-09-28T15:36:26;97054.06;;;14.53;64.55
28008;BME280;15333;50.010;20.020;2022-09-28T15:39:32;97040.06;;;14.72;62.82
28008;BME280;15333;50.010;20.020;2022-09-28T15:42:35;97048.81;;;14.74;63.25
28008;BME280;15333;50.010;20.020;2022-09-28T15:45:38;97048.88;;;14.66;62.57
28008;BME280;15333;50.010;20.020;2022-09-28T15:48:47;97043.50;;;14.66;62.67
28008;BME280;15333;50.010;20.020;2022-09-28T15:51:53;97041.81;;;14.65;62.17
28008;BME280;15333;50.010;20.020;2022-09-28T15:54:56;97051.50;;;14.74;60.49
28008;BME280;15333;50.010;20.020;2022-09-28T15:58:05;97040.38;;;14.77;60.92
28008;BME280;15333;50.010;20.020;2022-09-28T16:04:39;97046.94;;;14.74;60.15
28008;BME280;15333;50.010;20.020;2022-09-28T16:07:52;97047.53;;;14.70;59.89
28008;BME280;15333;50.010;20.020;2022-09-28T16:14:18;97046.59;;;14.63;59.88
28008;BME280;15333;50.010;20.020;2022-09-28T16:17:28;97041.38;;;14.61;60.00
28008;BME280;15333;50.010;20.020;2022-09-28T16:20:37;97035.50;;;14.58;60.26
28008;BME280;15333;50.010;20.020;2022-09-28T16:23:40;97041.94;;;14.71;58.96
28008;BME280;15333;50.010;20.020;2022-09-28T16:26:41;97036.19;;;14.74;59.30
28008;BME280;15333;50.010;20.020;2022-09-28T16:29:42;97041.66;;;14.81;58.13
28008;BME280;15333;50.010;20.020;2022-09-28T16:32:58;97042.03;;;14.78;59.21
28008;BME280;15333;50.010;20.020;2022-09-28T16:36:01;97037.56;;;14.85;58.58
28008;BME280;15333;50.010;20.020;2022-09-28T16:39:02;97043.34;;;14.82;59.39
28008;BME280;15333;50.010;20.020;2022-09-28T16:42:04;97043.34;;;14.82;59.83
28008;BME280;15333;50.010;20.020;2022-09-28T16:45:15;97040.28;;;14.70;59.49
28008;BME280;15333;50.010;20.020;2022-09-28T16:48:17;97037.47;;;14.78;60.27
28008;BME280;15333;50.010;20.020;2022-09-28T16:51:20;97045.75;;;14.77;59.61
28008;BME280;15333;50.010;20.020;2022-09-28T16:54:23;97048.25;;;14.78;60.03
28008;BME280;15333;50.010;20.020;2022-09-28T16:57:44;97040.38;;;14.77;60.00
28008;BME280;15333;50.010;20.020;2022-09-28T17:00:45;97044.44;;;14.73;60.80
28008;BME280;15333;50.010;20.020;2022-09-28T17:03:47;97052.25;;;14.68;61.13
28008;BME280;15333;50.010;20.020;2022-09-28T17:06:50;97056.31;;;14.64;61.76
28008;BME280;15333;50.010;20.020;2022-09-28T17:09:53;97046.38;;;14.64;61.18
28008;BME280;15333;50.010;20.020;2022-09-28T17:12:53;97050.66;;;14.59;61.66
28008;BME280;15333;50.010;20.020;2022-09-28T17:15:56;97047.00;;;14.52;62.11
28008;BME280;15333;50.010;20.020;2022-09-28T17:18:58;97049.34;;;14.55;61.76
28008;BME280;15333;50.010;20.020;2022-09-28T17:21:59;97040.69;;;14.44;62.71
28008;BME280;15333;50.010;20.020;2022-09-28T17:25:00;97041.75;;;14.35;63.26
28008;BME280;15333;50.010;20.020;2022-09-28T17:28:02;97046.81;;;14.38;63.72
28008;BME280;15333;50.010;20.020;2022-09-28T17:31:05;97056.72;;;14.38;63.87
28008;BME280;15333;50.010;20.020;2022-09-28T17:34:11;97054.75;;;14.32;63.58
28008;BME280;15333;50.010;20.020;2022-09-28T17:37:13;97063.00;;;14.30;64.80
28008;BME280;15333;50.010;20.020;2022-09-28T17:40:26;97053.91;;;14.31;65.03
28008;BME280;15333;50.010;20.020;2022-09-28T17:43:27;97054.91;;;14.30;64.78
28008;BME280;15333;50.010;20.020;2022-09-28T17:46:31;97066.75;;;14.21;64.73
28008;BME280;15333;50.010;20.020;2022-09-28T17:49:32;97053.03;;;14.16;65.70
28008;BME280;15333;50.010;20.020;2022-09-28T17:52:33;97062.03;;;14.23;64.99
28008;BME280;15333;50.010;20.020;2022-09-28T17:55:35;97062.03;;;14.23;64.76
28008;BME280;15333;50.010;20.020;2022-09-28T17:58:36;97068.69;;;14.13;65.95
28008;BME280;15333;50.010;20.020;2022-09-28T18:01:38;97065.47;;;14.17;66.01
28008;BME280;15333;50.010;20.020;2022-09-28T18:04:40;97068.81;;;14.19;65.77
28008;BME280;15333;50.010;20.020;2022-09-28T18:07:41;97068.50;;;14.14;65.81
28008;BME280;15333;50.010;20.020;2022-09-28T18:10:43;97076.56;;;14.14;66.31
28008;BME280;15333;50.010;20.020;2022-09-28T18:13:46;97076.56;;;14.14;66.12
28008;BME280;15333;50.010;20.020;2022-09-28T18:16:47;97074.53;;;14.16;66.60
28008;BME280;15333;50.010;20.020;2022-09-28T18:19:48;97082.91;;;14.21;66.51
28008;BME280;15333;50.010;20.020;2022-09-28T18:22:49;97088.16;;;14.15;66.63
28008;BME280;15333;50.010;20.020;2022-09-28T18:25:50;97086.03;;;14.10;67.32
28008;BME280;15333;50.010;20.020;2022-09-28T18:28:54;97093.09;;;14.11;67.36
28008;BME280;15333;50.010;20.020;2022-09-28T18:31:56;97094.66;;;14.05;67.12
28008;BME280;15333;50.010;20.020;2022-09-28T18:34:57;97094.16;;;14.02;68.04